Time;durP1;ratioP1;P1;durP2;ratioP2;P2;SDS_P1;SDS_P2;PMS_P1;PMS_P2;Temp;Humidity;BMP_temperature;BMP_pressure;BME280_temperature;BME280_humidity;BME280_pressure;Samples;Min_cycle;Max_cycle;Signal;HPM_P1;HPM_P2
2022/06/08 00:01:46;;;;;;;15.27;9.32;;;11.00;90.00;;;;;;5052979;28;20044;-81
2022/06/08 00:04:13;;;;;;;11.98;8.48;;;11.00;89.90;;;;;;5020301;28;20449;-82
2022/06/08 00:06:39;;;;;;;12.38;8.07;;;11.00;90.00;;;;;;5053109;28;20045;-81
2022/06/08 00:09:05;;;;;;;14.05;8.75;;;11.00;89.90;;;;;;5036232;28;20496;-82
2022/06/08 00:11:30;;;;;;;16.85;8.85;;;11.00;90.20;;;;;;5035934;28;20053;-83
2022/06/08 00:13:57;;;;;;;8.77;7.63;;;10.90;90.60;;;;;;5036160;28;20119;-82
2022/06/08 00:16:22;;;;;;;9.60;7.63;;;10.90;90.30;;;;;;5036043;28;20124;-81
2022/06/08 00:18:48;;;;;;;11.57;9.38;;;10.80;90.20;;;;;;5052656;28;20120;-82
2022/06/08 00:21:15;;;;;;;12.30;10.15;;;10.80;90.10;;;;;;5052569;28;20033;-83
2022/06/08 00:23:42;;;;;;;9.57;7.50;;;10.70;90.40;;;;;;5035979;28;20127;-82
2022/06/08 00:26:08;;;;;;;10.93;9.35;;;10.80;90.80;;;;;;5036166;28;20084;-81
2022/06/08 00:28:34;;;;;;;10.07;6.93;;;10.80;90.70;;;;;;5035805;28;20045;-82
2022/06/08 00:31:01;;;;;;;12.30;10.13;;;10.70;90.30;;;;;;5035761;28;20047;-81
2022/06/08 00:33:27;;;;;;;11.70;9.38;;;10.70;90.40;;;;;;5051522;28;20074;-83
2022/06/08 00:35:53;;;;;;;13.30;8.85;;;10.70;90.20;;;;;;5035839;28;20488;-83
2022/06/08 00:38:19;;;;;;;10.38;9.35;;;10.60;90.40;;;;;;5035649;28;20079;-82
2022/06/08 00:41:06;;;;;;;18.67;11.80;;;10.60;90.50;;;;;;5035992;28;20366;-82
2022/06/08 00:43:33;;;;;;;17.90;11.90;;;10.60;90.80;;;;;;5035647;28;20079;-81
2022/06/08 00:46:02;;;;;;;11.13;9.32;;;10.60;91.60;;;;;;5035649;28;20047;-83
2022/06/08 00:48:32;;;;;;;18.52;11.85;;;10.60;91.40;;;;;;5052324;28;20131;-83
2022/06/08 00:50:58;;;;;;;16.05;11.80;;;10.60;91.50;;;;;;5035380;28;20386;-82
2022/06/08 00:53:32;;;;;;;14.85;12.38;;;10.60;91.60;;;;;;5035383;28;20098;-82
2022/06/08 00:56:02;;;;;;;17.02;12.68;;;10.60;91.50;;;;;;5051995;28;20071;-83
2022/06/08 00:58:31;;;;;;;15.73;12.25;;;10.60;91.80;;;;;;5051918;28;20037;-81
2022/06/08 01:00:58;;;;;;;15.35;10.93;;;10.50;91.60;;;;;;5035239;28;20091;-82
2022/06/08 01:03:26;;;;;;;16.70;10.65;;;10.50;91.60;;;;;;5019135;28;20052;-83
2022/06/08 01:05:59;;;;;;;13.52;10.07;;;10.50;91.80;;;;;;5035173;28;20512;-82
2022/06/08 01:08:39;;;;;;;13.95;11.50;;;10.50;92.00;;;;;;5035518;28;20040;-83
2022/06/08 01:11:13;;;;;;;14.45;11.40;;;10.50;92.00;;;;;;5051512;28;20136;-82
2022/06/08 01:13:39;;;;;;;17.20;11.55;;;10.50;92.40;;;;;;5051737;28;20041;-83
2022/06/08 01:16:09;;;;;;;11.80;10.38;;;10.50;92.30;;;;;;5051687;28;20048;-82
2022/06/08 01:18:35;;;;;;;15.05;10.88;;;10.50;92.40;;;;;;5051588;28;20033;-82
2022/06/08 01:21:21;;;;;;;9.50;8.45;;;10.50;92.20;;;;;;5051878;28;20393;-83
2022/06/08 01:23:56;;;;;;;14.07;10.77;;;10.50;91.80;;;;;;5035245;28;20049;-82
2022/06/08 01:26:40;;;;;;;12.38;9.25;;;10.50;92.10;;;;;;5051648;28;20045;-83
2022/06/08 01:29:32;;;;;;;13.50;9.48;;;10.50;92.00;;;;;;5051600;28;20052;-81
2022/06/08 01:32:15;;;;;;;13.63;9.90;;;10.50;92.20;;;;;;5033339;28;20059;-83
2022/06/08 01:34:50;;;;;;;12.55;10.00;;;10.50;92.00;;;;;;5035134;28;20041;-82
2022/06/08 01:37:19;;;;;;;17.15;9.43;;;10.50;91.90;;;;;;5034844;28;20048;-82
2022/06/08 01:39:59;;;;;;;12.07;9.75;;;10.60;92.00;;;;;;5051592;28;20037;-82
2022/06/08 01:42:50;;;;;;;12.90;9.93;;;10.60;92.10;;;;;;5051521;28;20045;-82
2022/06/08 01:45:29;;;;;;;12.77;9.23;;;10.70;92.00;;;;;;5036103;28;20124;-83
2022/06/08 01:48:28;;;;;;;11.18;8.38;;;10.60;92.00;;;;;;5039128;28;20099;-83
2022/06/08 01:50:57;;;;;;;12.55;9.65;;;10.70;92.10;;;;;;5055479;28;20037;-82
2022/06/08 01:53:53;;;;;;;18.67;9.82;;;10.70;92.00;;;;;;5038926;28;20511;-83
2022/06/08 01:57:14;;;;;;;14.40;9.73;;;10.70;91.90;;;;;;5055630;28;20072;-83
2022/06/08 02:00:05;;;;;;;12.45;8.48;;;10.70;91.90;;;;;;5004018;28;20052;-83
2022/06/08 02:02:49;;;;;;;14.25;10.45;;;10.70;92.00;;;;;;5055164;28;20075;-82
2022/06/08 02:05:37;;;;;;;16.55;10.88;;;10.70;91.90;;;;;;5055213;28;20040;-82
2022/06/08 02:08:22;;;;;;;11.30;9.45;;;10.70;91.90;;;;;;5038550;28;20126;-82
2022/06/08 02:10:50;;;;;;;13.43;9.35;;;10.70;91.70;;;;;;5038504;28;20059;-82
2022/06/08 02:13:23;;;;;;;11.57;9.02;;;10.60;91.40;;;;;;5038404;28;20177;-82
2022/06/08 02:15:53;;;;;;;11.57;9.07;;;10.50;91.30;;;;;;5055101;28;20047;-80
2022/06/08 02:18:33;;;;;;;11.38;8.95;;;10.50;91.30;;;;;;5054972;28;20041;-83
2022/06/08 02:21:11;;;;;;;13.82;10.68;;;10.50;91.30;;;;;;5055039;28;20037;-84
2022/06/08 02:23:53;;;;;;;13.95;10.48;;;10.50;91.40;;;;;;5038456;28;20048;-84
2022/06/08 02:26:30;;;;;;;12.75;10.80;;;10.50;91.40;;;;;;5054820;28;20106;-83
2022/06/08 02:29:16;;;;;;;19.40;13.38;;;10.50;91.60;;;;;;5038165;28;20045;-81
2022/06/08 02:31:57;;;;;;;15.57;11.18;;;10.50;91.90;;;;;;5054641;28;20120;-81
2022/06/08 02:34:43;;;;;;;17.83;11.20;;;10.40;92.10;;;;;;5054699;28;20041;-81
2022/06/08 02:37:17;;;;;;;13.35;10.88;;;10.40;92.20;;;;;;5037642;28;20045;-81
2022/06/08 02:40:04;;;;;;;17.08;11.60;;;10.40;92.20;;;;;;5037925;28;20036;-81
2022/06/08 02:42:42;;;;;;;14.68;10.90;;;10.40;92.10;;;;;;5037900;28;20039;-81
2022/06/08 02:45:23;;;;;;;12.68;10.15;;;10.40;92.10;;;;;;5054456;28;20124;-80
2022/06/08 02:47:52;;;;;;;12.75;10.38;;;10.40;92.00;;;;;;5054667;28;20072;-81
2022/06/08 02:50:22;;;;;;;17.40;10.38;;;10.30;91.80;;;;;;5054269;28;20689;-81
2022/06/08 02:52:49;;;;;;;17.08;11.02;;;10.30;91.70;;;;;;5037975;28;20037;-82
2022/06/08 02:55:45;;;;;;;15.32;11.70;;;10.30;91.70;;;;;;5037585;28;20033;-81
2022/06/08 02:58:19;;;;;;;16.85;11.00;;;10.30;91.80;;;;;;5037061;28;20049;-80
2022/06/08 03:01:00;;;;;;;17.30;12.20;;;10.30;92.40;;;;;;5054134;28;20493;-81
2022/06/08 03:03:39;;;;;;;23.52;11.90;;;10.30;92.50;;;;;;5054446;28;20131;-81
2022/06/08 03:06:15;;;;;;;23.90;14.52;;;10.30;92.60;;;;;;5053943;28;20041;-80
2022/06/08 03:08:51;;;;;;;24.08;14.30;;;10.30;92.90;;;;;;5037298;28;20047;-79
2022/06/08 03:11:19;;;;;;;12.70;10.52;;;10.30;93.40;;;;;;5053357;28;20144;-82
2022/06/08 03:13:56;;;;;;;19.02;12.35;;;10.40;93.40;;;;;;5037282;28;20040;-81
2022/06/08 03:16:32;;;;;;;17.25;12.70;;;10.40;93.20;;;;;;5053957;28;20091;-82
2022/06/08 03:18:59;;;;;;;22.58;14.07;;;10.40;93.30;;;;;;5053904;28;20477;-82
2022/06/08 03:21:26;;;;;;;18.17;12.77;;;10.40;93.90;;;;;;5037334;28;20069;-80
2022/06/08 03:23:52;;;;;;;20.67;15.25;;;10.40;93.70;;;;;;5053769;28;20044;-82
2022/06/08 03:26:20;;;;;;;21.33;14.95;;;10.40;93.70;;;;;;5053780;28;20048;-82
2022/06/08 03:28:47;;;;;;;18.67;12.70;;;10.50;93.50;;;;;;5053686;28;20040;-82
2022/06/08 03:31:12;;;;;;;19.73;14.68;;;10.50;93.40;;;;;;5053536;28;20044;-82
2022/06/08 03:33:38;;;;;;;21.35;14.82;;;10.50;93.40;;;;;;5036840;28;20048;-82
2022/06/08 03:36:05;;;;;;;24.58;16.65;;;10.50;93.40;;;;;;5020626;28;20039;-82
2022/06/08 03:38:31;;;;;;;22.80;16.10;;;10.50;93.60;;;;;;5036860;28;20037;-82
2022/06/08 03:40:57;;;;;;;19.77;14.82;;;10.60;93.70;;;;;;5036746;28;20045;-83
2022/06/08 03:43:23;;;;;;;23.60;16.50;;;10.60;93.80;;;;;;5053768;28;20032;-82
2022/06/08 03:45:52;;;;;;;17.60;13.55;;;10.60;93.90;;;;;;5020223;28;20048;-81
2022/06/08 03:48:18;;;;;;;20.42;16.48;;;10.60;93.60;;;;;;5053283;28;20068;-82
2022/06/08 03:50:48;;;;;;;22.73;15.10;;;10.70;94.00;;;;;;5053281;28;20048;-82
2022/06/08 03:53:18;;;;;;;23.27;16.73;;;10.70;94.20;;;;;;5053119;28;20041;-82
2022/06/08 03:55:45;;;;;;;29.73;18.95;;;10.70;93.80;;;;;;5053190;28;20550;-81
2022/06/08 03:58:11;;;;;;;22.38;16.30;;;10.80;93.80;;;;;;5036487;28;20503;-82
2022/06/08 04:00:37;;;;;;;22.88;16.48;;;10.80;94.00;;;;;;5053051;28;20041;-82
2022/06/08 04:03:04;;;;;;;22.25;16.77;;;10.80;93.80;;;;;;5036539;28;20051;-82
2022/06/08 04:05:30;;;;;;;27.00;19.02;;;10.90;93.90;;;;;;5036402;28;20044;-81
2022/06/08 04:07:56;;;;;;;32.75;18.42;;;11.00;94.10;;;;;;5036326;28;20039;-81
2022/06/08 04:10:22;;;;;;;24.20;17.70;;;11.00;94.00;;;;;;5036285;28;20036;-82
2022/06/08 04:12:48;;;;;;;28.17;19.00;;;11.00;94.20;;;;;;5052467;28;20227;-82
2022/06/08 04:16:01;;;;;;;29.55;18.95;;;11.10;94.30;;;;;;5036352;28;20397;-82
2022/06/08 04:18:00;;;;;;;27.05;18.77;;;11.10;94.30;;;;;;5045260;28;20074;-82
2022/06/08 04:20:26;;;;;;;25.73;17.55;;;11.20;94.80;;;;;;5036092;28;20072;-81
2022/06/08 04:22:52;;;;;;;30.25;19.60;;;11.30;94.40;;;;;;5035975;28;20076;-82
2022/06/08 04:25:17;;;;;;;26.45;17.83;;;11.30;94.40;;;;;;5019506;28;20049;-82
2022/06/08 04:27:43;;;;;;;25.52;19.08;;;11.40;94.20;;;;;;5019672;28;20041;-82
2022/06/08 04:30:09;;;;;;;27.63;19.35;;;11.50;94.30;;;;;;5036114;28;20044;-80
2022/06/08 04:32:35;;;;;;;30.05;20.83;;;11.50;94.30;;;;;;5052540;28;20183;-81
2022/06/08 04:35:01;;;;;;;27.10;20.38;;;11.60;94.50;;;;;;5019360;28;20499;-83
2022/06/08 04:37:27;;;;;;;26.25;20.17;;;11.70;94.00;;;;;;5019589;28;20049;-82
2022/06/08 04:39:53;;;;;;;28.90;21.65;;;11.80;93.90;;;;;;5019634;28;20397;-82
2022/06/08 04:42:19;;;;;;;29.40;21.33;;;11.90;94.50;;;;;;5019227;28;20037;-82
2022/06/08 04:44:45;;;;;;;32.13;22.38;;;12.00;94.50;;;;;;5035631;28;20037;-82
2022/06/08 04:47:11;;;;;;;30.08;21.40;;;12.00;94.80;;;;;;5035813;28;20125;-79
2022/06/08 04:49:37;;;;;;;22.85;17.45;;;12.10;94.70;;;;;;5052243;28;20076;-80
2022/06/08 04:52:05;;;;;;;24.25;19.65;;;12.10;94.30;;;;;;5035708;28;20059;-82
2022/06/08 04:54:31;;;;;;;32.58;22.02;;;12.20;94.20;;;;;;5019565;28;20049;-83
2022/06/08 04:56:57;;;;;;;25.75;18.65;;;12.30;94.20;;;;;;5019676;28;20041;-84
2022/06/08 04:59:23;;;;;;;28.42;19.13;;;12.40;94.50;;;;;;5019484;28;20080;-83
2022/06/08 05:01:48;;;;;;;33.25;23.95;;;12.50;94.40;;;;;;5054168;28;20068;-84
2022/06/08 05:04:14;;;;;;;29.90;21.23;;;12.60;95.00;;;;;;5053951;28;20040;-84
2022/06/08 05:06:40;;;;;;;34.03;25.00;;;12.70;94.90;;;;;;5039186;28;20047;-84
2022/06/08 05:09:06;;;;;;;30.27;21.42;;;12.80;95.30;;;;;;5056033;28;20124;-85
2022/06/08 05:11:31;;;;;;;33.80;22.77;;;12.90;95.70;;;;;;5038802;28;20143;-81
2022/06/08 05:13:57;;;;;;;39.08;24.08;;;13.00;95.20;;;;;;5039080;28;20047;-82
2022/06/08 05:16:24;;;;;;;36.80;24.63;;;13.00;95.00;;;;;;5055614;28;20037;-81
2022/06/08 05:18:49;;;;;;;36.47;25.27;;;13.10;94.90;;;;;;5038841;28;20036;-82
2022/06/08 05:21:15;;;;;;;38.40;24.52;;;13.20;95.60;;;;;;5038374;28;20085;-83
2022/06/08 05:23:43;;;;;;;33.33;23.80;;;13.30;95.60;;;;;;5038787;28;20040;-83
2022/06/08 05:26:10;;;;;;;29.85;22.23;;;13.30;95.10;;;;;;5072123;28;20044;-83
2022/06/08 05:28:36;;;;;;;28.13;21.13;;;13.40;95.20;;;;;;5055690;28;20058;-83
2022/06/08 05:31:02;;;;;;;31.00;22.23;;;13.50;95.00;;;;;;5064681;28;20041;-82
2022/06/08 05:33:28;;;;;;;30.75;21.33;;;13.50;94.90;;;;;;5043699;28;20068;-83
2022/06/08 05:35:55;;;;;;;29.75;21.60;;;13.60;95.10;;;;;;5042756;28;20037;-83
2022/06/08 05:38:21;;;;;;;28.83;20.33;;;13.70;95.00;;;;;;5035430;28;20489;-83
2022/06/08 05:40:47;;;;;;;28.42;21.45;;;13.80;95.50;;;;;;5018938;28;20512;-83
2022/06/08 05:43:14;;;;;;;33.28;20.95;;;13.90;95.30;;;;;;5035698;28;20453;-82
2022/06/08 05:45:41;;;;;;;29.83;20.25;;;13.90;95.20;;;;;;5051965;28;20041;-82
2022/06/08 05:48:07;;;;;;;26.27;20.38;;;14.00;95.30;;;;;;5052553;28;20045;-83
2022/06/08 05:50:34;;;;;;;28.33;20.38;;;14.00;95.10;;;;;;5019234;28;20044;-83
2022/06/08 05:53:00;;;;;;;30.90;21.38;;;14.20;95.00;;;;;;5018962;28;20077;-82
2022/06/08 05:55:26;;;;;;;29.58;19.75;;;14.20;95.00;;;;;;5051879;28;20501;-83
2022/06/08 05:57:52;;;;;;;26.27;18.98;;;14.20;94.60;;;;;;5035681;28;20114;-84
2022/06/08 06:00:21;;;;;;;30.70;19.65;;;14.30;94.80;;;;;;5035289;28;20033;-82
2022/06/08 06:02:47;;;;;;;28.63;18.80;;;14.40;94.60;;;;;;5035520;28;20132;-82
2022/06/08 06:05:14;;;;;;;21.73;16.73;;;14.50;94.50;;;;;;5042054;28;20504;-83
2022/06/08 06:07:42;;;;;;;26.35;20.05;;;14.50;94.30;;;;;;5052483;28;20554;-83
2022/06/08 06:10:08;;;;;;;26.58;17.70;;;14.50;94.40;;;;;;5067833;28;20048;-83
2022/06/08 06:12:35;;;;;;;25.55;18.63;;;14.50;94.30;;;;;;5033029;28;20057;-84
2022/06/08 06:15:01;;;;;;;27.58;18.77;;;14.60;94.30;;;;;;5033544;28;20074;-83
2022/06/08 06:17:30;;;;;;;24.27;18.27;;;14.70;94.30;;;;;;5051294;28;20040;-82
2022/06/08 06:19:57;;;;;;;25.85;18.95;;;14.80;94.10;;;;;;5034866;28;20048;-82
2022/06/08 06:22:23;;;;;;;25.80;18.77;;;14.90;94.00;;;;;;5051018;28;20044;-83
2022/06/08 06:24:49;;;;;;;27.33;19.75;;;14.90;93.80;;;;;;5050333;28;20044;-83
2022/06/08 06:27:14;;;;;;;26.13;17.55;;;15.00;93.80;;;;;;5051573;28;20093;-83
2022/06/08 06:29:40;;;;;;;21.70;17.33;;;15.10;93.70;;;;;;5063411;28;20078;-83
2022/06/08 06:32:15;;;;;;;23.17;15.93;;;15.10;93.50;;;;;;5065956;28;20131;-83
2022/06/08 06:34:41;;;;;;;25.65;17.70;;;15.20;93.20;;;;;;5065215;28;20044;-83
2022/06/08 06:37:06;;;;;;;23.10;16.73;;;15.30;93.00;;;;;;5055534;28;20044;-83
2022/06/08 06:39:32;;;;;;;26.70;18.05;;;15.40;92.60;;;;;;5072738;28;20074;-82
2022/06/08 06:41:59;;;;;;;24.60;17.25;;;15.50;92.60;;;;;;5056159;28;20085;-83
2022/06/08 06:44:25;;;;;;;24.02;17.83;;;15.50;92.30;;;;;;5071308;28;20053;-84
2022/06/08 06:46:51;;;;;;;22.30;16.65;;;15.60;92.20;;;;;;5073069;28;20060;-85
2022/06/08 06:49:16;;;;;;;23.10;16.30;;;15.70;91.90;;;;;;5055909;28;20087;-84
2022/06/08 06:51:42;;;;;;;23.02;16.17;;;15.70;92.00;;;;;;5022540;28;21167;-84
2022/06/08 06:54:11;;;;;;;19.17;15.45;;;15.70;91.40;;;;;;5055762;28;20047;-82
2022/06/08 06:56:37;;;;;;;19.65;15.23;;;15.70;91.30;;;;;;5054515;28;20489;-84
2022/06/08 06:59:04;;;;;;;20.00;15.00;;;15.80;91.30;;;;;;5055678;28;20120;-83
2022/06/08 07:01:30;;;;;;;22.48;16.05;;;15.80;90.60;;;;;;5055109;28;20039;-84
2022/06/08 07:03:57;;;;;;;19.13;14.68;;;15.80;90.80;;;;;;5055169;28;20458;-83
2022/06/08 07:06:23;;;;;;;20.48;14.20;;;15.90;90.90;;;;;;5054890;28;20105;-82
2022/06/08 07:08:48;;;;;;;19.45;12.98;;;16.00;90.50;;;;;;5055251;28;20488;-84
2022/06/08 07:11:33;;;;;;;17.75;13.10;;;16.00;90.20;;;;;;5054887;28;20064;-83
2022/06/08 07:14:04;;;;;;;16.38;12.02;;;16.00;90.30;;;;;;5055377;28;20051;-83
2022/06/08 07:16:31;;;;;;;17.08;13.10;;;16.00;89.60;;;;;;5071103;28;20099;-82
2022/06/08 07:18:56;;;;;;;16.60;12.55;;;16.10;89.40;;;;;;5055376;28;20028;-82
2022/06/08 07:21:22;;;;;;;18.45;12.98;;;16.10;88.60;;;;;;5038402;28;20578;-83
2022/06/08 07:23:48;;;;;;;20.00;13.43;;;16.10;88.60;;;;;;5055265;28;20040;-82
2022/06/08 07:26:14;;;;;;;16.92;13.38;;;16.10;88.70;;;;;;5054958;28;20708;-82
2022/06/08 07:28:40;;;;;;;15.18;12.88;;;16.20;89.10;;;;;;5055491;28;20046;-83
2022/06/08 07:31:07;;;;;;;19.63;14.50;;;16.30;89.00;;;;;;5053757;28;20460;-82
2022/06/08 07:33:34;;;;;;;17.10;12.60;;;16.40;88.70;;;;;;5055015;28;20041;-82
2022/06/08 07:36:03;;;;;;;15.27;12.68;;;16.30;88.50;;;;;;5055205;28;20040;-82
2022/06/08 07:38:29;;;;;;;16.92;12.98;;;16.40;87.80;;;;;;5071785;28;20378;-83
2022/06/08 07:40:55;;;;;;;15.70;13.13;;;16.40;88.10;;;;;;5070812;28;20043;-82
2022/06/08 07:43:21;;;;;;;19.08;14.32;;;16.50;87.90;;;;;;5071094;28;20084;-82
2022/06/08 07:45:46;;;;;;;15.25;11.40;;;16.60;88.20;;;;;;5038135;28;20543;-86
2022/06/08 07:50:56;;;;;;;;;;;16.70;87.70;;;;;;5058153;28;20420;-86
2022/06/08 07:53:22;;;;;;;16.08;12.23;;;16.80;87.20;;;;;;5054668;28;19928;-81
2022/06/08 07:55:48;;;;;;;15.45;11.50;;;16.90;87.00;;;;;;5069670;28;20040;-86
2022/06/08 07:58:14;;;;;;;15.93;11.48;;;16.90;85.90;;;;;;5054466;28;20494;-86
2022/06/08 08:00:43;;;;;;;15.00;10.35;;;16.90;86.50;;;;;;5070711;28;20033;-86
2022/06/08 08:03:10;;;;;;;13.73;10.95;;;16.90;86.50;;;;;;5053971;28;20447;-85
2022/06/08 08:05:36;;;;;;;16.63;11.30;;;16.80;86.30;;;;;;5022086;28;20095;-84
2022/06/08 08:08:01;;;;;;;17.50;11.77;;;16.90;86.40;;;;;;5053873;28;20098;-82
2022/06/08 08:10:27;;;;;;;15.00;10.93;;;16.90;86.30;;;;;;5019717;28;20127;-83
2022/06/08 08:12:55;;;;;;;13.35;10.93;;;17.00;86.50;;;;;;5053104;28;20066;-85
2022/06/08 08:15:21;;;;;;;15.20;11.68;;;17.20;86.40;;;;;;5053589;28;20127;-82
2022/06/08 08:17:47;;;;;;;11.70;9.00;;;17.40;86.20;;;;;;5070301;28;20040;-83
2022/06/08 08:20:16;;;;;;;12.30;8.15;;;17.40;84.00;;;;;;5053921;28;20143;-85
2022/06/08 08:22:42;;;;;;;12.32;9.13;;;17.50;84.70;;;;;;5067054;28;20044;-83
2022/06/08 08:25:09;;;;;;;10.93;7.88;;;17.60;84.60;;;;;;5029263;28;20539;-84
2022/06/08 08:27:36;;;;;;;13.75;9.25;;;17.60;83.90;;;;;;5045890;28;20102;-85
2022/06/08 08:30:02;;;;;;;12.05;9.10;;;17.60;83.50;;;;;;5048601;28;20050;-83
2022/06/08 08:32:28;;;;;;;11.55;8.27;;;17.60;83.70;;;;;;5063848;28;20658;-83
2022/06/08 08:34:54;;;;;;;9.65;6.18;;;17.60;84.10;;;;;;5030822;28;20079;-83
2022/06/08 08:37:19;;;;;;;8.98;6.22;;;17.60;83.70;;;;;;5052573;28;20052;-85
2022/06/08 08:39:45;;;;;;;9.13;5.97;;;17.60;83.10;;;;;;5053164;28;20036;-84
2022/06/08 08:42:21;;;;;;;8.13;5.75;;;17.70;82.50;;;;;;5036824;28;20036;-85
2022/06/08 08:44:59;;;;;;;9.85;6.38;;;18.00;82.40;;;;;;5053248;28;20044;-84
2022/06/08 08:47:43;;;;;;;8.18;6.10;;;18.00;81.10;;;;;;5070750;28;20509;-82
2022/06/08 08:50:23;;;;;;;8.40;5.97;;;18.00;80.20;;;;;;5052263;28;20074;-82
2022/06/08 08:52:51;;;;;;;8.65;6.53;;;18.00;81.20;;;;;;5069039;28;20049;-81
2022/06/08 08:55:50;;;;;;;7.38;6.47;;;18.00;80.90;;;;;;5051253;28;20048;-82
2022/06/08 08:58:21;;;;;;;9.48;6.55;;;18.10;80.80;;;;;;5069574;28;20047;-81
2022/06/08 09:00:49;;;;;;;6.93;5.50;;;18.40;81.10;;;;;;5053073;28;20068;-83
2022/06/08 09:03:24;;;;;;;8.07;5.95;;;18.50;79.60;;;;;;5052624;28;20084;-82
2022/06/08 09:05:54;;;;;;;9.45;5.53;;;18.70;78.80;;;;;;5067819;28;20374;-80
2022/06/08 09:08:21;;;;;;;6.88;5.40;;;18.90;78.60;;;;;;5051921;28;20051;-80
2022/06/08 09:10:48;;;;;;;8.80;5.97;;;19.10;78.80;;;;;;5035368;28;20108;-80
2022/06/08 09:13:40;;;;;;;8.43;5.70;;;19.30;78.00;;;;;;5069541;28;20056;-80
2022/06/08 09:16:07;;;;;;;7.22;6.00;;;19.40;76.20;;;;;;5067019;28;20052;-79
2022/06/08 09:18:39;;;;;;;5.90;5.30;;;19.40;75.70;;;;;;5035368;28;20118;-80
2022/06/08 09:21:26;;;;;;;8.57;5.60;;;19.40;75.40;;;;;;5068038;28;20044;-78
2022/06/08 09:23:55;;;;;;;8.77;6.75;;;19.40;76.60;;;;;;5069543;28;20044;-79
2022/06/08 09:26:24;;;;;;;7.45;6.38;;;19.40;76.60;;;;;;5067865;28;20956;-80
2022/06/08 09:29:09;;;;;;;7.15;6.38;;;19.50;76.80;;;;;;5067913;28;20389;-81
2022/06/08 09:31:36;;;;;;;8.73;6.40;;;19.40;75.20;;;;;;5051016;28;20051;-81
2022/06/08 09:34:25;;;;;;;7.22;5.95;;;19.60;76.60;;;;;;5067890;28;20039;-82
2022/06/08 09:37:14;;;;;;;6.50;4.80;;;19.40;74.40;;;;;;5067417;28;20118;-81
2022/06/08 09:39:43;;;;;;;7.68;4.97;;;19.50;75.30;;;;;;5065610;28;20039;-79
2022/06/08 09:42:24;;;;;;;9.80;5.13;;;19.30;75.50;;;;;;5065662;28;20542;-80
2022/06/08 09:44:58;;;;;;;7.32;5.35;;;19.30;75.40;;;;;;5067263;28;20132;-80
2022/06/08 09:51:27;;;;;;;6.00;4.80;;;19.40;75.80;;;;;;5068658;28;20048;-77
2022/06/08 09:54:15;;;;;;;9.23;5.68;;;19.40;75.60;;;;;;5064181;28;20053;-76
2022/06/08 09:56:50;;;;;;;7.65;5.63;;;19.40;75.90;;;;;;5069412;28;20075;-78
2022/06/08 09:59:36;;;;;;;7.63;5.90;;;19.40;76.10;;;;;;5068733;28;20074;-79
2022/06/08 10:02:15;;;;;;;9.63;5.28;;;19.30;76.80;;;;;;5051279;28;20365;-79
2022/06/08 10:05:04;;;;;;;8.55;5.28;;;19.20;76.80;;;;;;5049684;28;20060;-81
2022/06/08 10:07:57;;;;;;;6.75;4.80;;;19.10;76.20;;;;;;5073706;28;20048;-78
2022/06/08 10:10:32;;;;;;;5.55;4.57;;;19.10;76.40;;;;;;5071990;28;20052;-80
2022/06/08 10:13:11;;;;;;;8.60;4.60;;;19.10;75.70;;;;;;5071913;28;20056;-82
2022/06/08 10:15:48;;;;;;;6.82;5.10;;;19.20;76.20;;;;;;5053720;28;20037;-78
2022/06/08 10:18:27;;;;;;;5.60;4.80;;;19.20;76.40;;;;;;5055585;28;20115;-78
2022/06/08 10:20:55;;;;;;;5.95;4.65;;;19.20;75.60;;;;;;5055082;28;20055;-77
2022/06/08 10:23:34;;;;;;;6.72;5.18;;;19.30;75.90;;;;;;5054884;28;20681;-78
2022/06/08 10:26:22;;;;;;;6.90;4.68;;;19.20;76.10;;;;;;5054574;28;20040;-79
2022/06/08 10:29:18;;;;;;;7.65;5.45;;;19.10;76.70;;;;;;5064246;28;20063;-79
2022/06/08 10:32:00;;;;;;;8.57;5.47;;;19.10;76.10;;;;;;5071676;28;20091;-81
2022/06/08 10:34:31;;;;;;;8.27;5.95;;;19.10;77.20;;;;;;5053724;28;20413;-77
2022/06/08 10:37:10;;;;;;;9.02;6.53;;;19.00;77.60;;;;;;5072808;28;20419;-77
2022/06/08 10:39:36;;;;;;;7.75;6.45;;;18.90;79.30;;;;;;5054103;28;20098;-76
2022/06/08 10:44:58;;;;;;;8.55;6.80;;;18.70;83.20;;;;;;5070037;28;20055;-77
2022/06/08 10:47:37;;;;;;;7.97;6.50;;;18.50;82.80;;;;;;5070463;28;20052;-78
2022/06/08 10:50:03;;;;;;;7.60;6.57;;;18.60;83.30;;;;;;5068805;28;20083;-81
2022/06/08 10:52:45;;;;;;;7.90;6.90;;;18.50;84.30;;;;;;5071245;28;20044;-79
2022/06/08 10:55:14;;;;;;;7.35;6.60;;;18.70;83.70;;;;;;5069747;28;20047;-80
2022/06/08 10:57:49;;;;;;;9.20;6.47;;;18.70;83.80;;;;;;5070120;28;20496;-80
2022/06/08 11:00:21;;;;;;;7.47;6.78;;;18.80;84.30;;;;;;5071157;28;20036;-80
2022/06/08 11:02:53;;;;;;;9.18;7.75;;;18.90;83.70;;;;;;5071159;28;20796;-80
2022/06/08 11:05:34;;;;;;;8.25;7.10;;;19.00;83.60;;;;;;5070518;28;20045;-80
2022/06/08 11:08:04;;;;;;;8.20;7.40;;;19.00;82.80;;;;;;5071030;28;20036;-80
2022/06/08 11:10:53;;;;;;;8.18;7.25;;;19.20;82.90;;;;;;5070714;28;20477;-80
2022/06/08 11:13:22;;;;;;;7.88;6.90;;;19.20;81.70;;;;;;5070005;28;20496;-80
2022/06/08 11:16:18;;;;;;;8.85;7.65;;;19.30;82.40;;;;;;5069720;28;20093;-80
2022/06/08 11:19:04;;;;;;;8.63;7.75;;;19.40;82.10;;;;;;5068518;28;20036;-80
2022/06/08 11:21:29;;;;;;;10.18;8.52;;;19.50;82.40;;;;;;5053576;28;20455;-81
2022/06/08 11:24:23;;;;;;;9.63;8.70;;;19.70;82.20;;;;;;5070151;28;20071;-80
2022/06/08 11:27:21;;;;;;;9.15;8.25;;;19.90;81.60;;;;;;5052460;28;20134;-81
2022/06/08 11:29:48;;;;;;;8.75;7.60;;;20.00;81.50;;;;;;5063725;28;20497;-79
2022/06/08 11:32:32;;;;;;;9.20;7.65;;;20.10;81.40;;;;;;5067444;28;20044;-78
2022/06/08 11:35:17;;;;;;;8.85;7.18;;;20.20;81.20;;;;;;5069088;28;20162;-79
2022/06/08 11:38:10;;;;;;;8.20;7.30;;;20.40;81.10;;;;;;5068947;28;20040;-78
2022/06/08 11:40:36;;;;;;;9.65;7.70;;;20.30;81.10;;;;;;5069458;28;20037;-78
2022/06/08 11:43:14;;;;;;;8.45;7.43;;;20.20;81.00;;;;;;5053503;28;20044;-78
2022/06/08 11:45:44;;;;;;;10.98;8.50;;;20.20;81.50;;;;;;5066969;28;20041;-77
2022/06/08 11:48:26;;;;;;;8.95;7.35;;;20.00;81.60;;;;;;5053138;28;20044;-80
2022/06/08 11:50:56;;;;;;;9.00;6.97;;;19.90;81.80;;;;;;5069186;28;20063;-78
2022/06/08 11:53:34;;;;;;;11.40;7.95;;;19.70;82.10;;;;;;5052645;28;20504;-78
2022/06/08 11:56:28;;;;;;;11.70;8.25;;;19.50;82.30;;;;;;5067997;28;20048;-78
2022/06/08 11:58:57;;;;;;;10.15;9.07;;;19.40;83.00;;;;;;5068414;28;20492;-79
2022/06/08 12:01:26;;;;;;;10.82;9.25;;;19.30;82.90;;;;;;5069415;28;20036;-77
2022/06/08 12:04:00;;;;;;;12.15;10.27;;;19.30;84.20;;;;;;5053082;28;20052;-82
2022/06/08 12:06:31;;;;;;;11.43;9.77;;;19.10;84.70;;;;;;5069136;28;20542;-80
2022/06/08 12:09:20;;;;;;;11.40;9.77;;;19.00;85.10;;;;;;5053077;28;20052;-80
2022/06/08 12:11:51;;;;;;;11.00;9.85;;;18.90;85.10;;;;;;5052152;28;20100;-77
2022/06/08 12:14:26;;;;;;;12.65;9.75;;;18.90;85.30;;;;;;5067932;28;20157;-78
2022/06/08 12:17:31;;;;;;;13.80;12.45;;;18.90;85.10;;;;;;5071100;28;20045;-78
2022/06/08 12:19:58;;;;;;;13.82;12.48;;;18.90;85.40;;;;;;5057718;28;20122;-80
2022/06/08 12:22:33;;;;;;;15.93;14.27;;;18.90;85.00;;;;;;5070029;28;20028;-80
2022/06/08 12:25:22;;;;;;;15.70;14.02;;;18.90;85.30;;;;;;5069169;28;20508;-79
2022/06/08 12:27:58;;;;;;;16.02;14.32;;;19.00;84.70;;;;;;5069288;28;20048;-80
2022/06/08 12:30:35;;;;;;;16.65;14.98;;;18.90;83.50;;;;;;5051618;28;20051;-79
2022/06/08 12:33:19;;;;;;;19.33;17.33;;;18.90;84.00;;;;;;5069836;28;20041;-79
2022/06/08 12:36:00;;;;;;;20.33;18.23;;;18.90;82.20;;;;;;5051405;28;20397;-78
2022/06/08 12:38:34;;;;;;;22.65;19.95;;;18.80;82.60;;;;;;5069122;28;20488;-78
2022/06/08 12:41:16;;;;;;;22.83;20.60;;;18.80;82.50;;;;;;5052735;28;20052;-78
2022/06/08 12:43:48;;;;;;;23.25;20.75;;;18.70;82.70;;;;;;5068286;28;20464;-78
2022/06/08 12:46:16;;;;;;;19.13;17.15;;;18.70;82.70;;;;;;5051722;28;20556;-81
2022/06/08 12:48:55;;;;;;;11.48;10.38;;;18.50;81.90;;;;;;5043041;28;20480;-80
2022/06/08 12:51:56;;;;;;;6.43;5.82;;;18.50;81.80;;;;;;5058807;28;20048;-80
2022/06/08 12:54:34;;;;;;;9.15;8.27;;;18.40;81.30;;;;;;5007461;28;20692;-78
2022/06/08 12:57:14;;;;;;;9.77;8.50;;;18.20;82.20;;;;;;5066328;28;20049;-79
2022/06/08 12:59:41;;;;;;;8.30;6.28;;;18.10;83.20;;;;;;5052201;28;20037;-82
2022/06/08 13:02:14;;;;;;;6.15;3.50;;;17.80;83.30;;;;;;5067614;28;20461;-78
2022/06/08 13:04:40;;;;;;;3.25;2.80;;;17.80;82.90;;;;;;5050069;28;20043;-79
2022/06/08 13:07:11;;;;;;;4.40;3.20;;;17.60;82.50;;;;;;5068404;28;20033;-78
2022/06/08 13:09:37;;;;;;;6.10;3.28;;;17.50;83.30;;;;;;5066466;28;20071;-81